sensor_id;sensor_type;location;lat;lon;timestamp;P1;durP1;ratioP1;P2;durP2;ratioP2
76123;SDS011;65173;48.066;20.976;2023-04-15T00:01:02;8.00;;;4.20;;
76123;SDS011;65173;48.066;20.976;2023-04-15T00:04:05;8.65;;;4.72;;
76123;SDS011;65173;48.066;20.976;2023-04-15T00:07:08;6.77;;;3.80;;
76123;SDS011;65173;48.066;20.976;2023-04-15T00:10:11;4.55;;;2.90;;
76123;SDS011;65173;48.066;20.976;2023-04-15T00:13:15;6.57;;;2.85;;
76123;SDS011;65173;48.066;20.976;2023-04-15T00:16:18;4.63;;;2.60;;
76123;SDS011;65173;48.066;20.976;2023-04-15T00:19:21;4.82;;;2.33;;
76123;SDS011;65173;48.066;20.976;2023-04-15T00:22:25;4.13;;;2.47;;
76123;SDS011;65173;48.066;20.976;2023-04-15T00:25:28;4.03;;;2.30;;
76123;SDS011;65173;48.066;20.976;2023-04-15T00:28:31;7.23;;;2.90;;
76123;SDS011;65173;48.066;20.976;2023-04-15T00:31:34;2.58;;;2.28;;
76123;SDS011;65173;48.066;20.976;2023-04-15T00:34:38;6.00;;;2.85;;
76123;SDS011;65173;48.066;20.976;2023-04-15T00:37:41;3.77;;;2.70;;
76123;SDS011;65173;48.066;20.976;2023-04-15T00:40:47;5.05;;;2.45;;
76123;SDS011;65173;48.066;20.976;2023-04-15T00:43:51;4.97;;;2.92;;
76123;SDS011;65173;48.066;20.976;2023-04-15T00:46:54;3.92;;;2.88;;
76123;SDS011;65173;48.066;20.976;2023-04-15T00:49:57;4.53;;;2.92;;
76123;SDS011;65173;48.066;20.976;2023-04-15T00:53:00;5.20;;;2.83;;
76123;SDS011;65173;48.066;20.976;2023-04-15T00:56:02;3.67;;;2.53;;
76123;SDS011;65173;48.066;20.976;2023-04-15T00:59:07;5.67;;;2.93;;
76123;SDS011;65173;48.066;20.976;2023-04-15T01:02:10;4.93;;;2.55;;
76123;SDS011;65173;48.066;20.976;2023-04-15T01:05:13;5.55;;;3.15;;
76123;SDS011;65173;48.066;20.976;2023-04-15T01:08:18;4.93;;;3.57;;
76123;SDS011;65173;48.066;20.976;2023-04-15T01:11:21;5.13;;;3.38;;
76123;SDS011;65173;48.066;20.976;2023-04-15T01:14:25;5.43;;;3.78;;
76123;SDS011;65173;48.066;20.976;2023-04-15T01:17:28;4.75;;;3.00;;
76123;SDS011;65173;48.066;20.976;2023-04-15T01:20:31;5.32;;;3.60;;
76123;SDS011;65173;48.066;20.976;2023-04-15T01:23:36;7.28;;;4.07;;
76123;SDS011;65173;48.066;20.976;2023-04-15T01:26:41;6.97;;;4.20;;
76123;SDS011;65173;48.066;20.976;2023-04-15T01:29:45;5.63;;;3.70;;
76123;SDS011;65173;48.066;20.976;2023-04-15T01:32:48;7.28;;;4.50;;
76123;SDS011;65173;48.066;20.976;2023-04-15T01:35:53;9.15;;;4.43;;
76123;SDS011;65173;48.066;20.976;2023-04-15T01:38:59;6.97;;;4.00;;
76123;SDS011;65173;48.066;20.976;2023-04-15T01:42:03;7.25;;;4.22;;
76123;SDS011;65173;48.066;20.976;2023-04-15T01:45:07;6.68;;;4.18;;
76123;SDS011;65173;48.066;20.976;2023-04-15T01:48:12;6.97;;;3.72;;
76123;SDS011;65173;48.066;20.976;2023-04-15T01:51:14;7.68;;;3.95;;
76123;SDS011;65173;48.066;20.976;2023-04-15T01:54:18;7.25;;;4.22;;
76123;SDS011;65173;48.066;20.976;2023-04-15T01:57:20;8.30;;;3.90;;
76123;SDS011;65173;48.066;20.976;2023-04-15T02:00:23;6.97;;;4.60;;
76123;SDS011;65173;48.066;20.976;2023-04-15T02:03:27;7.07;;;4.13;;
76123;SDS011;65173;48.066;20.976;2023-04-15T02:06:31;6.38;;;4.05;;
76123;SDS011;65173;48.066;20.976;2023-04-15T02:09:34;6.57;;;4.30;;
76123;SDS011;65173;48.066;20.976;2023-04-15T02:12:37;5.85;;;4.25;;
76123;SDS011;65173;48.066;20.976;2023-04-15T02:15:40;9.95;;;4.20;;
76123;SDS011;65173;48.066;20.976;2023-04-15T02:18:48;6.40;;;4.50;;
76123;SDS011;65173;48.066;20.976;2023-04-15T02:21:53;6.68;;;3.92;;
76123;SDS011;65173;48.066;20.976;2023-04-15T02:24:56;6.53;;;3.70;;
76123;SDS011;65173;48.066;20.976;2023-04-15T02:27:59;7.60;;;4.82;;
76123;SDS011;65173;48.066;20.976;2023-04-15T02:31:05;8.43;;;4.70;;
76123;SDS011;65173;48.066;20.976;2023-04-15T02:34:09;8.32;;;5.07;;
76123;SDS011;65173;48.066;20.976;2023-04-15T02:37:13;7.57;;;4.78;;
76123;SDS011;65173;48.066;20.976;2023-04-15T02:40:15;8.13;;;5.30;;
76123;SDS011;65173;48.066;20.976;2023-04-15T02:43:20;10.75;;;5.30;;
76123;SDS011;65173;48.066;20.976;2023-04-15T02:46:24;11.63;;;6.75;;
76123;SDS011;65173;48.066;20.976;2023-04-15T02:49:27;13.57;;;8.45;;
76123;SDS011;65173;48.066;20.976;2023-04-15T02:52:32;10.18;;;6.20;;
76123;SDS011;65173;48.066;20.976;2023-04-15T02:55:34;8.38;;;5.78;;
76123;SDS011;65173;48.066;20.976;2023-04-15T02:58:38;11.20;;;6.57;;
76123;SDS011;65173;48.066;20.976;2023-04-15T03:01:42;9.70;;;6.13;;
76123;SDS011;65173;48.066;20.976;2023-04-15T03:04:45;10.95;;;6.78;;
76123;SDS011;65173;48.066;20.976;2023-04-15T03:07:47;11.65;;;6.15;;
76123;SDS011;65173;48.066;20.976;2023-04-15T03:10:50;10.40;;;6.67;;
76123;SDS011;65173;48.066;20.976;2023-04-15T03:13:56;10.85;;;5.68;;
76123;SDS011;65173;48.066;20.976;2023-04-15T03:17:05;13.25;;;7.50;;
76123;SDS011;65173;48.066;20.976;2023-04-15T03:20:08;9.43;;;5.15;;
76123;SDS011;65173;48.066;20.976;2023-04-15T03:23:11;16.55;;;8.48;;
76123;SDS011;65173;48.066;20.976;2023-04-15T03:26:28;18.10;;;8.98;;
76123;SDS011;65173;48.066;20.976;2023-04-15T03:29:44;22.58;;;9.75;;
76123;SDS011;65173;48.066;20.976;2023-04-15T03:32:51;13.37;;;7.00;;
76123;SDS011;65173;48.066;20.976;2023-04-15T03:35:54;16.20;;;7.40;;
76123;SDS011;65173;48.066;20.976;2023-04-15T03:38:58;11.43;;;6.90;;
76123;SDS011;65173;48.066;20.976;2023-04-15T03:42:01;16.73;;;6.40;;
76123;SDS011;65173;48.066;20.976;2023-04-15T03:45:04;13.50;;;6.78;;
76123;SDS011;65173;48.066;20.976;2023-04-15T03:48:08;12.13;;;6.43;;
76123;SDS011;65173;48.066;20.976;2023-04-15T03:51:18;10.77;;;6.82;;
76123;SDS011;65173;48.066;20.976;2023-04-15T03:54:21;13.00;;;8.07;;
76123;SDS011;65173;48.066;20.976;2023-04-15T03:57:24;15.95;;;8.75;;
76123;SDS011;65173;48.066;20.976;2023-04-15T04:00:26;12.20;;;8.00;;
76123;SDS011;65173;48.066;20.976;2023-04-15T04:03:30;11.37;;;6.60;;
76123;SDS011;65173;48.066;20.976;2023-04-15T04:06:33;10.90;;;6.20;;
76123;SDS011;65173;48.066;20.976;2023-04-15T04:09:35;11.10;;;6.53;;
76123;SDS011;65173;48.066;20.976;2023-04-15T04:12:40;8.83;;;5.70;;
76123;SDS011;65173;48.066;20.976;2023-04-15T04:15:42;9.98;;;5.32;;
76123;SDS011;65173;48.066;20.976;2023-04-15T04:18:45;10.55;;;6.28;;
76123;SDS011;65173;48.066;20.976;2023-04-15T04:21:48;10.25;;;6.18;;
76123;SDS011;65173;48.066;20.976;2023-04-15T04:24:51;10.52;;;5.57;;
76123;SDS011;65173;48.066;20.976;2023-04-15T04:27:54;10.02;;;5.97;;
76123;SDS011;65173;48.066;20.976;2023-04-15T04:30:57;11.68;;;6.18;;
76123;SDS011;65173;48.066;20.976;2023-04-15T04:34:00;11.27;;;5.83;;
76123;SDS011;65173;48.066;20.976;2023-04-15T04:37:03;15.30;;;7.25;;
76123;SDS011;65173;48.066;20.976;2023-04-15T04:40:06;11.82;;;6.53;;
76123;SDS011;65173;48.066;20.976;2023-04-15T04:43:10;10.03;;;6.10;;
76123;SDS011;65173;48.066;20.976;2023-04-15T04:46:13;11.10;;;6.35;;
76123;SDS011;65173;48.066;20.976;2023-04-15T04:49:16;10.73;;;6.60;;
76123;SDS011;65173;48.066;20.976;2023-04-15T04:52:18;12.18;;;7.07;;
76123;SDS011;65173;48.066;20.976;2023-04-15T04:55:21;11.50;;;6.40;;
76123;SDS011;65173;48.066;20.976;2023-04-15T04:58:24;12.07;;;6.15;;
76123;SDS011;65173;48.066;20.976;2023-04-15T05:01:27;11.65;;;5.70;;
76123;SDS011;65173;48.066;20.976;2023-04-15T05:04:30;9.87;;;6.13;;
76123;SDS011;65173;48.066;20.976;2023-04-15T05:07:33;10.05;;;5.60;;
76123;SDS011;65173;48.066;20.976;2023-04-15T05:10:36;10.98;;;6.00;;
76123;SDS011;65173;48.066;20.976;2023-04-15T05:13:38;11.23;;;6.83;;
76123;SDS011;65173;48.066;20.976;2023-04-15T05:16:41;9.55;;;6.03;;
76123;SDS011;65173;48.066;20.976;2023-04-15T05:19:44;9.75;;;6.03;;
76123;SDS011;65173;48.066;20.976;2023-04-15T05:22:46;10.85;;;6.30;;
76123;SDS011;65173;48.066;20.976;2023-04-15T05:25:49;9.05;;;5.07;;
76123;SDS011;65173;48.066;20.976;2023-04-15T05:28:52;10.73;;;5.50;;
76123;SDS011;65173;48.066;20.976;2023-04-15T05:31:55;9.45;;;5.75;;
76123;SDS011;65173;48.066;20.976;2023-04-15T05:34:58;10.47;;;5.67;;
76123;SDS011;65173;48.066;20.976;2023-04-15T05:38:01;9.73;;;6.00;;
76123;SDS011;65173;48.066;20.976;2023-04-15T05:41:03;9.35;;;5.03;;
76123;SDS011;65173;48.066;20.976;2023-04-15T05:44:06;11.13;;;5.83;;
76123;SDS011;65173;48.066;20.976;2023-04-15T05:47:09;7.65;;;5.28;;
76123;SDS011;65173;48.066;20.976;2023-04-15T05:50:12;9.15;;;5.75;;
76123;SDS011;65173;48.066;20.976;2023-04-15T05:53:15;13.18;;;7.47;;
76123;SDS011;65173;48.066;20.976;2023-04-15T05:56:18;8.18;;;5.18;;
76123;SDS011;65173;48.066;20.976;2023-04-15T05:59:21;13.93;;;6.50;;
76123;SDS011;65173;48.066;20.976;2023-04-15T06:02:24;7.18;;;3.90;;
76123;SDS011;65173;48.066;20.976;2023-04-15T06:05:27;12.30;;;7.43;;
76123;SDS011;65173;48.066;20.976;2023-04-15T06:08:30;10.40;;;5.95;;
76123;SDS011;65173;48.066;20.976;2023-04-15T06:11:33;11.40;;;6.55;;
76123;SDS011;65173;48.066;20.976;2023-04-15T06:14:36;11.07;;;4.90;;
76123;SDS011;65173;48.066;20.976;2023-04-15T06:17:39;7.15;;;4.20;;
76123;SDS011;65173;48.066;20.976;2023-04-15T06:20:42;11.85;;;6.82;;
76123;SDS011;65173;48.066;20.976;2023-04-15T06:23:45;9.20;;;5.95;;
76123;SDS011;65173;48.066;20.976;2023-04-15T06:26:47;9.27;;;5.45;;
76123;SDS011;65173;48.066;20.976;2023-04-15T06:29:51;9.05;;;5.72;;
76123;SDS011;65173;48.066;20.976;2023-04-15T06:32:53;8.27;;;5.45;;
76123;SDS011;65173;48.066;20.976;2023-04-15T06:35:57;9.93;;;5.27;;
76123;SDS011;65173;48.066;20.976;2023-04-15T06:39:00;7.43;;;4.75;;
76123;SDS011;65173;48.066;20.976;2023-04-15T06:42:03;7.97;;;4.80;;
76123;SDS011;65173;48.066;20.976;2023-04-15T06:45:06;8.10;;;5.00;;
76123;SDS011;65173;48.066;20.976;2023-04-15T06:48:10;8.00;;;4.50;;
76123;SDS011;65173;48.066;20.976;2023-04-15T06:51:13;7.32;;;4.25;;
76123;SDS011;65173;48.066;20.976;2023-04-15T06:54:16;5.75;;;4.15;;
76123;SDS011;65173;48.066;20.976;2023-04-15T06:57:18;6.10;;;4.32;;
76123;SDS011;65173;48.066;20.976;2023-04-15T07:00:21;5.28;;;2.83;;
76123;SDS011;65173;48.066;20.976;2023-04-15T07:03:23;6.30;;;4.28;;
76123;SDS011;65173;48.066;20.976;2023-04-15T07:06:27;4.07;;;2.10;;
76123;SDS011;65173;48.066;20.976;2023-04-15T07:09:30;6.55;;;4.72;;
76123;SDS011;65173;48.066;20.976;2023-04-15T07:12:34;7.93;;;4.05;;
76123;SDS011;65173;48.066;20.976;2023-04-15T07:15:37;4.80;;;3.43;;
76123;SDS011;65173;48.066;20.976;2023-04-15T07:18:39;5.07;;;3.63;;
76123;SDS011;65173;48.066;20.976;2023-04-15T07:21:42;5.35;;;3.55;;
76123;SDS011;65173;48.066;20.976;2023-04-15T07:24:45;2.63;;;2.38;;
76123;SDS011;65173;48.066;20.976;2023-04-15T07:27:48;4.63;;;2.50;;
76123;SDS011;65173;48.066;20.976;2023-04-15T07:30:51;4.90;;;3.30;;
76123;SDS011;65173;48.066;20.976;2023-04-15T07:33:54;4.45;;;3.65;;
76123;SDS011;65173;48.066;20.976;2023-04-15T07:36:57;4.00;;;2.93;;
76123;SDS011;65173;48.066;20.976;2023-04-15T07:39:59;4.55;;;3.47;;
76123;SDS011;65173;48.066;20.976;2023-04-15T07:43:02;4.72;;;3.20;;
76123;SDS011;65173;48.066;20.976;2023-04-15T07:46:05;3.53;;;2.67;;
76123;SDS011;65173;48.066;20.976;2023-04-15T07:49:08;5.22;;;3.13;;
76123;SDS011;65173;48.066;20.976;2023-04-15T07:52:11;5.15;;;2.92;;
76123;SDS011;65173;48.066;20.976;2023-04-15T07:55:14;6.43;;;3.95;;
76123;SDS011;65173;48.066;20.976;2023-04-15T07:58:20;4.97;;;3.47;;
76123;SDS011;65173;48.066;20.976;2023-04-15T08:01:23;3.58;;;3.22;;
76123;SDS011;65173;48.066;20.976;2023-04-15T08:04:25;3.25;;;1.92;;
76123;SDS011;65173;48.066;20.976;2023-04-15T08:07:29;3.70;;;2.73;;
76123;SDS011;65173;48.066;20.976;2023-04-15T08:10:32;4.53;;;2.95;;
76123;SDS011;65173;48.066;20.976;2023-04-15T08:13:35;4.80;;;3.20;;
76123;SDS011;65173;48.066;20.976;2023-04-15T08:16:38;5.03;;;3.60;;
76123;SDS011;65173;48.066;20.976;2023-04-15T08:19:42;5.15;;;2.83;;
76123;SDS011;65173;48.066;20.976;2023-04-15T08:22:44;3.00;;;2.47;;
76123;SDS011;65173;48.066;20.976;2023-04-15T08:25:49;4.65;;;3.58;;
76123;SDS011;65173;48.066;20.976;2023-04-15T08:28:53;3.88;;;2.75;;
76123;SDS011;65173;48.066;20.976;2023-04-15T08:31:56;4.22;;;2.92;;
76123;SDS011;65173;48.066;20.976;2023-04-15T08:35:00;5.65;;;3.38;;
76123;SDS011;65173;48.066;20.976;2023-04-15T08:38:03;3.80;;;3.00;;
76123;SDS011;65173;48.066;20.976;2023-04-15T08:41:06;3.80;;;2.78;;
76123;SDS011;65173;48.066;20.976;2023-04-15T08:44:14;4.32;;;2.90;;
76123;SDS011;65173;48.066;20.976;2023-04-15T08:47:17;5.73;;;3.33;;
76123;SDS011;65173;48.066;20.976;2023-04-15T08:50:22;5.10;;;4.05;;
76123;SDS011;65173;48.066;20.976;2023-04-15T08:53:27;4.13;;;2.95;;
76123;SDS011;65173;48.066;20.976;2023-04-15T08:56:31;3.78;;;2.90;;
76123;SDS011;65173;48.066;20.976;2023-04-15T08:59:34;3.97;;;2.95;;
76123;SDS011;65173;48.066;20.976;2023-04-15T09:02:38;3.42;;;3.03;;
76123;SDS011;65173;48.066;20.976;2023-04-15T09:05:42;7.57;;;2.88;;
76123;SDS011;65173;48.066;20.976;2023-04-15T09:08:45;5.27;;;3.17;;
76123;SDS011;65173;48.066;20.976;2023-04-15T09:11:49;4.07;;;2.40;;
76123;SDS011;65173;48.066;20.976;2023-04-15T09:14:53;3.67;;;2.75;;
76123;SDS011;65173;48.066;20.976;2023-04-15T09:17:56;2.50;;;2.00;;
76123;SDS011;65173;48.066;20.976;2023-04-15T09:21:05;4.63;;;2.85;;
76123;SDS011;65173;48.066;20.976;2023-04-15T09:24:10;2.83;;;2.60;;
76123;SDS011;65173;48.066;20.976;2023-04-15T09:27:16;5.25;;;3.05;;
76123;SDS011;65173;48.066;20.976;2023-04-15T09:30:18;4.53;;;2.90;;
76123;SDS011;65173;48.066;20.976;2023-04-15T09:33:22;2.58;;;1.92;;
76123;SDS011;65173;48.066;20.976;2023-04-15T09:36:25;2.92;;;2.38;;
76123;SDS011;65173;48.066;20.976;2023-04-15T09:39:49;2.60;;;1.83;;
76123;SDS011;65173;48.066;20.976;2023-04-15T09:42:54;3.60;;;1.60;;
76123;SDS011;65173;48.066;20.976;2023-04-15T09:45:57;1.95;;;1.77;;
76123;SDS011;65173;48.066;20.976;2023-04-15T09:49:06;2.10;;;1.20;;
76123;SDS011;65173;48.066;20.976;2023-04-15T09:52:12;4.28;;;1.90;;
76123;SDS011;65173;48.066;20.976;2023-04-15T09:55:16;1.73;;;1.48;;
76123;SDS011;65173;48.066;20.976;2023-04-15T09:58:20;1.27;;;1.17;;
76123;SDS011;65173;48.066;20.976;2023-04-15T10:01:25;2.03;;;1.40;;
76123;SDS011;65173;48.066;20.976;2023-04-15T10:04:28;1.42;;;1.33;;
76123;SDS011;65173;48.066;20.976;2023-04-15T10:07:32;1.58;;;1.48;;
76123;SDS011;65173;48.066;20.976;2023-04-15T10:10:35;2.80;;;1.30;;
76123;SDS011;65173;48.066;20.976;2023-04-15T10:13:39;1.30;;;1.20;;
76123;SDS011;65173;48.066;20.976;2023-04-15T10:16:42;1.50;;;1.10;;
76123;SDS011;65173;48.066;20.976;2023-04-15T10:19:52;1.97;;;1.77;;
76123;SDS011;65173;48.066;20.976;2023-04-15T10:22:55;2.40;;;1.70;;
76123;SDS011;65173;48.066;20.976;2023-04-15T10:25:59;2.42;;;1.80;;
76123;SDS011;65173;48.066;20.976;2023-04-15T10:29:02;1.95;;;1.10;;
76123;SDS011;65173;48.066;20.976;2023-04-15T10:32:06;1.85;;;1.48;;
76123;SDS011;65173;48.066;20.976;2023-04-15T10:35:09;1.92;;;1.10;;
76123;SDS011;65173;48.066;20.976;2023-04-15T10:41:47;2.83;;;0.87;;
76123;SDS011;65173;48.066;20.976;2023-04-15T10:45:14;2.00;;;1.27;;
76123;SDS011;65173;48.066;20.976;2023-04-15T10:48:19;3.42;;;1.63;;
76123;SDS011;65173;48.066;20.976;2023-04-15T10:51:25;3.13;;;1.73;;
76123;SDS011;65173;48.066;20.976;2023-04-15T10:54:31;1.50;;;1.40;;
76123;SDS011;65173;48.066;20.976;2023-04-15T10:57:36;1.13;;;0.90;;
76123;SDS011;65173;48.066;20.976;2023-04-15T11:00:40;1.60;;;1.45;;
76123;SDS011;65173;48.066;20.976;2023-04-15T11:04:00;1.88;;;1.50;;
76123;SDS011;65173;48.066;20.976;2023-04-15T11:07:04;3.20;;;1.55;;
76123;SDS011;65173;48.066;20.976;2023-04-15T11:13:49;1.73;;;1.40;;
76123;SDS011;65173;48.066;20.976;2023-04-15T11:16:54;2.17;;;1.60;;
76123;SDS011;65173;48.066;20.976;2023-04-15T11:19:57;1.92;;;1.63;;
76123;SDS011;65173;48.066;20.976;2023-04-15T11:23:00;1.30;;;1.20;;
76123;SDS011;65173;48.066;20.976;2023-04-15T11:26:16;1.20;;;1.10;;
76123;SDS011;65173;48.066;20.976;2023-04-15T11:29:19;1.70;;;1.60;;
76123;SDS011;65173;48.066;20.976;2023-04-15T11:32:22;1.98;;;1.70;;
76123;SDS011;65173;48.066;20.976;2023-04-15T11:35:25;2.70;;;1.52;;
76123;SDS011;65173;48.066;20.976;2023-04-15T11:38:28;1.33;;;0.98;;
76123;SDS011;65173;48.066;20.976;2023-04-15T11:41:32;0.45;;;0.45;;
76123;SDS011;65173;48.066;20.976;2023-04-15T11:44:37;1.63;;;1.17;;
76123;SDS011;65173;48.066;20.976;2023-04-15T11:47:40;1.20;;;1.10;;
76123;SDS011;65173;48.066;20.976;2023-04-15T11:50:44;1.35;;;1.15;;
76123;SDS011;65173;48.066;20.976;2023-04-15T11:53:48;2.67;;;1.30;;
76123;SDS011;65173;48.066;20.976;2023-04-15T11:56:51;1.52;;;1.17;;
76123;SDS011;65173;48.066;20.976;2023-04-15T11:59:55;1.98;;;1.80;;
76123;SDS011;65173;48.066;20.976;2023-04-15T12:06:30;2.67;;;1.63;;
76123;SDS011;65173;48.066;20.976;2023-04-15T12:09:36;10.90;;;3.92;;
76123;SDS011;65173;48.066;20.976;2023-04-15T12:12:39;1.50;;;1.30;;
76123;SDS011;65173;48.066;20.976;2023-04-15T12:15:42;1.73;;;1.50;;
76123;SDS011;65173;48.066;20.976;2023-04-15T12:18:46;4.53;;;2.10;;
76123;SDS011;65173;48.066;20.976;2023-04-15T12:21:52;2.15;;;1.40;;
76123;SDS011;65173;48.066;20.976;2023-04-15T12:25:01;1.40;;;1.30;;
76123;SDS011;65173;48.066;20.976;2023-04-15T12:28:11;2.35;;;1.75;;
76123;SDS011;65173;48.066;20.976;2023-04-15T12:31:14;1.45;;;1.30;;
76123;SDS011;65173;48.066;20.976;2023-04-15T12:37:33;1.60;;;1.50;;
76123;SDS011;65173;48.066;20.976;2023-04-15T12:40:36;2.28;;;1.90;;
76123;SDS011;65173;48.066;20.976;2023-04-15T12:43:39;1.75;;;1.20;;
76123;SDS011;65173;48.066;20.976;2023-04-15T12:46:41;1.40;;;1.30;;
76123;SDS011;65173;48.066;20.976;2023-04-15T12:49:45;1.30;;;1.20;;
76123;SDS011;65173;48.066;20.976;2023-04-15T12:52:48;1.45;;;1.35;;
76123;SDS011;65173;48.066;20.976;2023-04-15T12:55:51;1.93;;;1.37;;
76123;SDS011;65173;48.066;20.976;2023-04-15T12:58:54;1.70;;;1.23;;
76123;SDS011;65173;48.066;20.976;2023-04-15T13:01:57;1.40;;;1.30;;
76123;SDS011;65173;48.066;20.976;2023-04-15T13:05:02;1.65;;;1.55;;
76123;SDS011;65173;48.066;20.976;2023-04-15T13:08:05;1.83;;;1.52;;
76123;SDS011;65173;48.066;20.976;2023-04-15T13:11:08;0.80;;;0.75;;
76123;SDS011;65173;48.066;20.976;2023-04-15T13:14:10;1.67;;;0.60;;
76123;SDS011;65173;48.066;20.976;2023-04-15T13:17:14;0.30;;;0.30;;
76123;SDS011;65173;48.066;20.976;2023-04-15T13:20:20;1.13;;;0.90;;
76123;SDS011;65173;48.066;20.976;2023-04-15T13:23:23;4.93;;;3.30;;
76123;SDS011;65173;48.066;20.976;2023-04-15T13:26:25;0.50;;;0.50;;
76123;SDS011;65173;48.066;20.976;2023-04-15T13:29:29;3.80;;;3.50;;
76123;SDS011;65173;48.066;20.976;2023-04-15T13:32:31;10.82;;;9.73;;
76123;SDS011;65173;48.066;20.976;2023-04-15T13:35:35;1.50;;;1.40;;
76123;SDS011;65173;48.066;20.976;2023-04-15T13:38:38;0.40;;;0.30;;
76123;SDS011;65173;48.066;20.976;2023-04-15T13:41:41;0.43;;;0.43;;
76123;SDS011;65173;48.066;20.976;2023-04-15T13:44:44;2.40;;;1.92;;
76123;SDS011;65173;48.066;20.976;2023-04-15T13:47:47;3.43;;;2.57;;
76123;SDS011;65173;48.066;20.976;2023-04-15T13:50:49;9.40;;;5.95;;
76123;SDS011;65173;48.066;20.976;2023-04-15T13:53:52;5.53;;;3.42;;
76123;SDS011;65173;48.066;20.976;2023-04-15T13:56:55;2.20;;;2.00;;
76123;SDS011;65173;48.066;20.976;2023-04-15T13:59:59;2.88;;;2.20;;
76123;SDS011;65173;48.066;20.976;2023-04-15T14:03:01;4.45;;;3.17;;
76123;SDS011;65173;48.066;20.976;2023-04-15T14:06:05;3.28;;;2.15;;
76123;SDS011;65173;48.066;20.976;2023-04-15T14:09:08;4.45;;;2.00;;
76123;SDS011;65173;48.066;20.976;2023-04-15T14:12:12;1.48;;;1.38;;
76123;SDS011;65173;48.066;20.976;2023-04-15T14:15:14;1.88;;;1.30;;
76123;SDS011;65173;48.066;20.976;2023-04-15T14:18:17;5.60;;;3.07;;
76123;SDS011;65173;48.066;20.976;2023-04-15T14:21:20;12.90;;;5.55;;
76123;SDS011;65173;48.066;20.976;2023-04-15T14:24:23;26.75;;;9.40;;
76123;SDS011;65173;48.066;20.976;2023-04-15T14:27:26;1.13;;;0.60;;
76123;SDS011;65173;48.066;20.976;2023-04-15T14:30:30;0.90;;;0.90;;
76123;SDS011;65173;48.066;20.976;2023-04-15T14:33:32;1.73;;;1.25;;
76123;SDS011;65173;48.066;20.976;2023-04-15T14:36:35;2.47;;;1.13;;
76123;SDS011;65173;48.066;20.976;2023-04-15T14:39:38;3.35;;;1.63;;
76123;SDS011;65173;48.066;20.976;2023-04-15T14:42:42;6.28;;;3.13;;
76123;SDS011;65173;48.066;20.976;2023-04-15T14:45:45;2.65;;;1.00;;
76123;SDS011;65173;48.066;20.976;2023-04-15T14:48:48;1.30;;;0.97;;
76123;SDS011;65173;48.066;20.976;2023-04-15T14:51:51;2.25;;;1.60;;
76123;SDS011;65173;48.066;20.976;2023-04-15T14:54:55;2.33;;;2.00;;
76123;SDS011;65173;48.066;20.976;2023-04-15T14:57:57;2.43;;;1.73;;
76123;SDS011;65173;48.066;20.976;2023-04-15T15:01:00;2.42;;;1.45;;
76123;SDS011;65173;48.066;20.976;2023-04-15T15:04:04;3.55;;;2.00;;
76123;SDS011;65173;48.066;20.976;2023-04-15T15:07:07;1.92;;;1.70;;
76123;SDS011;65173;48.066;20.976;2023-04-15T15:10:10;2.83;;;2.15;;
76123;SDS011;65173;48.066;20.976;2023-04-15T15:13:14;3.13;;;2.60;;
76123;SDS011;65173;48.066;20.976;2023-04-15T15:16:16;2.53;;;2.10;;
76123;SDS011;65173;48.066;20.976;2023-04-15T15:19:19;2.23;;;1.60;;
76123;SDS011;65173;48.066;20.976;2023-04-15T15:22:22;1.75;;;1.45;;
76123;SDS011;65173;48.066;20.976;2023-04-15T15:25:27;3.08;;;2.15;;
76123;SDS011;65173;48.066;20.976;2023-04-15T15:28:29;3.30;;;1.53;;
76123;SDS011;65173;48.066;20.976;2023-04-15T15:31:35;1.30;;;0.90;;
76123;SDS011;65173;48.066;20.976;2023-04-15T15:34:38;4.13;;;1.83;;
76123;SDS011;65173;48.066;20.976;2023-04-15T15:37:41;2.85;;;2.17;;
76123;SDS011;65173;48.066;20.976;2023-04-15T15:40:44;3.78;;;2.65;;
76123;SDS011;65173;48.066;20.976;2023-04-15T15:43:48;3.95;;;2.50;;
76123;SDS011;65173;48.066;20.976;2023-04-15T15:46:50;4.03;;;2.28;;
76123;SDS011;65173;48.066;20.976;2023-04-15T15:49:53;6.30;;;3.63;;
76123;SDS011;65173;48.066;20.976;2023-04-15T15:52:56;5.90;;;3.00;;
76123;SDS011;65173;48.066;20.976;2023-04-15T15:56:00;5.22;;;2.95;;
76123;SDS011;65173;48.066;20.976;2023-04-15T15:59:05;6.10;;;3.73;;
76123;SDS011;65173;48.066;20.976;2023-04-15T16:02:11;6.45;;;3.80;;
76123;SDS011;65173;48.066;20.976;2023-04-15T16:05:17;4.22;;;2.72;;
76123;SDS011;65173;48.066;20.976;2023-04-15T16:08:21;5.03;;;2.30;;
76123;SDS011;65173;48.066;20.976;2023-04-15T16:11:23;3.22;;;2.35;;
76123;SDS011;65173;48.066;20.976;2023-04-15T16:14:26;5.55;;;2.50;;
76123;SDS011;65173;48.066;20.976;2023-04-15T16:17:29;2.67;;;1.67;;
76123;SDS011;65173;48.066;20.976;2023-04-15T16:20:32;2.57;;;1.60;;
76123;SDS011;65173;48.066;20.976;2023-04-15T16:23:35;5.13;;;2.83;;
76123;SDS011;65173;48.066;20.976;2023-04-15T16:26:39;6.63;;;4.00;;
76123;SDS011;65173;48.066;20.976;2023-04-15T16:29:42;9.97;;;4.23;;
76123;SDS011;65173;48.066;20.976;2023-04-15T16:32:45;5.57;;;3.33;;
76123;SDS011;65173;48.066;20.976;2023-04-15T16:35:47;13.05;;;5.97;;
76123;SDS011;65173;48.066;20.976;2023-04-15T16:38:52;8.63;;;4.00;;
76123;SDS011;65173;48.066;20.976;2023-04-15T16:41:55;7.30;;;5.20;;
76123;SDS011;65173;48.066;20.976;2023-04-15T16:44:58;13.10;;;7.90;;
76123;SDS011;65173;48.066;20.976;2023-04-15T16:48:02;8.05;;;6.00;;
76123;SDS011;65173;48.066;20.976;2023-04-15T16:51:05;5.00;;;3.00;;
76123;SDS011;65173;48.066;20.976;2023-04-15T16:54:07;2.22;;;1.55;;
76123;SDS011;65173;48.066;20.976;2023-04-15T16:57:11;1.92;;;1.77;;
76123;SDS011;65173;48.066;20.976;2023-04-15T17:00:14;4.67;;;2.87;;
76123;SDS011;65173;48.066;20.976;2023-04-15T17:03:17;3.40;;;3.10;;
76123;SDS011;65173;48.066;20.976;2023-04-15T17:06:20;3.80;;;3.40;;
76123;SDS011;65173;48.066;20.976;2023-04-15T17:09:23;12.00;;;6.22;;
76123;SDS011;65173;48.066;20.976;2023-04-15T17:12:26;8.00;;;5.53;;
76123;SDS011;65173;48.066;20.976;2023-04-15T17:15:28;7.25;;;5.35;;
76123;SDS011;65173;48.066;20.976;2023-04-15T17:18:31;7.60;;;5.90;;
76123;SDS011;65173;48.066;20.976;2023-04-15T17:21:34;8.97;;;5.20;;
76123;SDS011;65173;48.066;20.976;2023-04-15T17:24:37;8.15;;;6.38;;
76123;SDS011;65173;48.066;20.976;2023-04-15T17:27:40;13.70;;;11.20;;
76123;SDS011;65173;48.066;20.976;2023-04-15T17:30:42;15.13;;;9.67;;
76123;SDS011;65173;48.066;20.976;2023-04-15T17:33:45;11.77;;;7.63;;
76123;SDS011;65173;48.066;20.976;2023-04-15T17:37:07;14.90;;;8.70;;
76123;SDS011;65173;48.066;20.976;2023-04-15T17:40:10;9.90;;;7.40;;
76123;SDS011;65173;48.066;20.976;2023-04-15T17:43:13;9.57;;;6.60;;
76123;SDS011;65173;48.066;20.976;2023-04-15T17:46:16;7.88;;;4.70;;
76123;SDS011;65173;48.066;20.976;2023-04-15T17:49:20;9.73;;;4.95;;
76123;SDS011;65173;48.066;20.976;2023-04-15T17:52:23;6.80;;;4.53;;
76123;SDS011;65173;48.066;20.976;2023-04-15T17:55:26;6.80;;;4.78;;
76123;SDS011;65173;48.066;20.976;2023-04-15T17:58:29;4.93;;;4.40;;
76123;SDS011;65173;48.066;20.976;2023-04-15T18:01:32;6.03;;;4.50;;
76123;SDS011;65173;48.066;20.976;2023-04-15T18:04:35;7.10;;;4.40;;
76123;SDS011;65173;48.066;20.976;2023-04-15T18:07:38;9.48;;;5.53;;
76123;SDS011;65173;48.066;20.976;2023-04-15T18:10:41;14.60;;;7.50;;
76123;SDS011;65173;48.066;20.976;2023-04-15T18:13:44;14.82;;;10.70;;
76123;SDS011;65173;48.066;20.976;2023-04-15T18:16:47;10.18;;;8.88;;
76123;SDS011;65173;48.066;20.976;2023-04-15T18:19:50;11.80;;;8.30;;